createdAt,value
2017-04-27T00:00:00.802Z,925.59
2017-04-27T00:00:13.895Z,925.58
2017-04-27T00:00:27.025Z,925.55
2017-04-27T00:00:39.125Z,925.53
2017-04-27T00:00:52.318Z,925.53
2017-04-27T00:01:05.847Z,925.58
2017-04-27T00:01:19.011Z,925.56
2017-04-27T00:01:32.115Z,925.52
2017-04-27T00:01:44.228Z,925.53
2017-04-27T00:01:56.854Z,925.54
2017-04-27T00:02:10.012Z,925.55
2017-04-27T00:02:22.636Z,925.55
2017-04-27T00:02:35.776Z,925.52
2017-04-27T00:02:48.892Z,925.53
2017-04-27T00:03:01.542Z,925.54
2017-04-27T00:03:14.629Z,925.49
2017-04-27T00:03:27.753Z,925.52
2017-04-27T00:03:40.426Z,925.51
2017-04-27T00:03:53.596Z,925.52
2017-04-27T00:04:06.239Z,925.51
2017-04-27T00:04:18.856Z,925.46
2017-04-27T00:04:32.023Z,925.48
2017-04-27T00:04:44.748Z,925.46
2017-04-27T00:04:57.913Z,925.42
2017-04-27T00:05:11.076Z,925.48
2017-04-27T00:05:23.706Z,925.47
2017-04-27T00:05:36.877Z,925.46
2017-04-27T00:05:50.021Z,925.48
2017-04-27T00:06:03.153Z,925.47
2017-04-27T00:06:16.297Z,925.5
2017-04-27T00:06:29.435Z,925.44
2017-04-27T00:06:42.582Z,925.41
2017-04-27T00:06:55.711Z,925.44
2017-04-27T00:07:08.859Z,925.45
2017-04-27T00:07:22.639Z,925.48
2017-04-27T00:07:35.793Z,925.44
2017-04-27T00:07:48.925Z,925.47
2017-04-27T00:08:02.032Z,925.45
2017-04-27T00:08:15.139Z,925.45
2017-04-27T00:08:27.725Z,925.45
2017-04-27T00:08:40.847Z,925.47
2017-04-27T00:08:53.990Z,925.49
2017-04-27T00:09:07.117Z,925.5
2017-04-27T00:09:20.263Z,925.49
2017-04-27T00:09:33.383Z,925.48
2017-04-27T00:09:46.472Z,925.52
2017-04-27T00:09:59.652Z,925.5
2017-04-27T00:10:12.300Z,925.47
2017-04-27T00:10:24.943Z,925.5
2017-04-27T00:10:38.122Z,925.48
2017-04-27T00:10:51.220Z,925.47
2017-04-27T00:11:04.470Z,925.48
2017-04-27T00:11:17.595Z,925.5
2017-04-27T00:11:30.683Z,925.48
2017-04-27T00:11:43.812Z,925.48
2017-04-27T00:11:56.915Z,925.47
2017-04-27T00:12:10.046Z,925.52
2017-04-27T00:12:22.675Z,925.49
2017-04-27T00:12:35.787Z,925.48
2017-04-27T00:12:48.959Z,925.49
2017-04-27T00:13:01.612Z,925.48
2017-04-27T00:13:14.294Z,925.53
2017-04-27T00:13:27.506Z,925.52
2017-04-27T00:13:40.647Z,925.53
2017-04-27T00:13:53.820Z,925.52
2017-04-27T00:14:06.975Z,925.51
2017-04-27T00:14:20.149Z,925.52
2017-04-27T00:14:32.790Z,925.51
2017-04-27T00:14:46.049Z,925.5
2017-04-27T00:14:59.252Z,925.52
2017-04-27T00:15:11.907Z,925.53
2017-04-27T00:15:25.047Z,925.51
2017-04-27T00:15:37.680Z,925.5
2017-04-27T00:15:50.809Z,925.52
2017-04-27T00:16:03.945Z,925.5
2017-04-27T00:16:17.338Z,925.53
2017-04-27T00:16:30.440Z,925.5
2017-04-27T00:16:43.610Z,925.57
2017-04-27T00:16:56.288Z,925.55
2017-04-27T00:17:08.456Z,925.54
2017-04-27T00:17:20.662Z,925.5
2017-04-27T00:17:34.464Z,925.51
2017-04-27T00:17:47.948Z,925.51
2017-04-27T00:18:01.120Z,925.53
2017-04-27T00:18:14.331Z,925.53
2017-04-27T00:18:27.540Z,925.53
2017-04-27T00:18:40.628Z,925.51
2017-04-27T00:18:53.779Z,925.52
2017-04-27T00:19:06.444Z,925.52
2017-04-27T00:19:19.076Z,925.53
2017-04-27T00:19:32.221Z,925.52
2017-04-27T00:19:44.916Z,925.52
2017-04-27T00:19:58.084Z,925.53
2017-04-27T00:20:11.268Z,925.49
2017-04-27T00:20:24.391Z,925.52
2017-04-27T00:20:37.566Z,925.53
2017-04-27T00:20:50.678Z,925.52
2017-04-27T00:21:03.983Z,925.5
2017-04-27T00:21:17.174Z,925.53
2017-04-27T00:21:30.297Z,925.54
2017-04-27T00:21:43.476Z,925.51
2017-04-27T00:21:56.667Z,925.48
2017-04-27T00:22:10.177Z,925.48
2017-04-27T00:22:22.866Z,925.49
2017-04-27T00:22:35.540Z,925.51
2017-04-27T00:22:48.697Z,925.47
2017-04-27T00:23:01.861Z,925.45
2017-04-27T00:23:14.983Z,925.47
2017-04-27T00:23:28.143Z,925.47
2017-04-27T00:23:41.313Z,925.47
2017-04-27T00:23:54.462Z,925.49
2017-04-27T00:24:07.640Z,925.47
2017-04-27T00:24:20.360Z,925.44
2017-04-27T00:24:33.564Z,925.44
2017-04-27T00:24:46.654Z,925.4
2017-04-27T00:25:00.474Z,925.45
2017-04-27T00:25:12.125Z,925.45
2017-04-27T00:25:24.784Z,925.48
2017-04-27T00:25:37.926Z,925.48
2017-04-27T00:25:51.035Z,925.46
2017-04-27T00:26:04.210Z,925.47
2017-04-27T00:26:16.865Z,925.45
2017-04-27T00:26:30.033Z,925.45
2017-04-27T00:26:43.252Z,925.49
2017-04-27T00:26:55.931Z,925.46
2017-04-27T00:27:08.547Z,925.49
2017-04-27T00:27:21.628Z,925.44
2017-04-27T00:27:34.721Z,925.51
2017-04-27T00:27:47.892Z,925.47
2017-04-27T00:28:01.056Z,925.46
2017-04-27T00:28:14.248Z,925.48
2017-04-27T00:28:26.937Z,925.49
2017-04-27T00:28:40.094Z,925.51
2017-04-27T00:28:53.261Z,925.53
2017-04-27T00:29:05.915Z,925.47
2017-04-27T00:29:19.080Z,925.52
2017-04-27T00:29:32.232Z,925.5
2017-04-27T00:29:45.359Z,925.51
2017-04-27T00:29:58.007Z,925.51
2017-04-27T00:30:11.147Z,925.49
2017-04-27T00:30:24.259Z,925.5
2017-04-27T00:30:37.480Z,925.49
2017-04-27T00:30:50.652Z,925.48
2017-04-27T00:31:03.829Z,925.53
2017-04-27T00:31:17.161Z,925.53
2017-04-27T00:31:30.341Z,925.51
2017-04-27T00:31:43.449Z,925.54
2017-04-27T00:31:56.585Z,925.52
2017-04-27T00:32:09.786Z,925.51
2017-04-27T00:32:22.931Z,925.55
2017-04-27T00:32:35.619Z,925.57
2017-04-27T00:32:48.734Z,925.54
2017-04-27T00:33:01.885Z,925.57
2017-04-27T00:33:14.542Z,925.57
2017-04-27T00:33:27.696Z,925.57
2017-04-27T00:33:40.785Z,925.56
2017-04-27T00:33:53.470Z,925.58
2017-04-27T00:34:06.614Z,925.58
2017-04-27T00:34:19.800Z,925.57
2017-04-27T00:34:32.956Z,925.54
2017-04-27T00:34:46.170Z,925.58
2017-04-27T00:34:59.239Z,925.54
2017-04-27T00:35:12.494Z,925.55
2017-04-27T00:35:25.120Z,925.51
2017-04-27T00:35:38.257Z,925.56
2017-04-27T00:35:51.416Z,925.55
2017-04-27T00:36:04.555Z,925.52
2017-04-27T00:36:17.713Z,925.53
2017-04-27T00:36:30.896Z,925.56
2017-04-27T00:36:44.057Z,925.53
2017-04-27T00:36:56.723Z,925.53
2017-04-27T00:37:09.919Z,925.53
2017-04-27T00:37:22.597Z,925.53
2017-04-27T00:37:35.759Z,925.56
2017-04-27T00:37:48.885Z,925.53
2017-04-27T00:38:02.041Z,925.53
2017-04-27T00:38:14.681Z,925.55
2017-04-27T00:38:27.321Z,925.53
2017-04-27T00:38:40.527Z,925.53
2017-04-27T00:38:53.198Z,925.54
2017-04-27T00:39:06.376Z,925.55
2017-04-27T00:39:19.580Z,925.55
2017-04-27T00:39:32.768Z,925.54
2017-04-27T00:39:45.368Z,925.58
2017-04-27T00:39:58.537Z,925.56
2017-04-27T00:40:11.650Z,925.58
2017-04-27T00:40:24.891Z,925.6
2017-04-27T00:40:37.608Z,925.58
2017-04-27T00:40:50.749Z,925.55
2017-04-27T00:41:03.894Z,925.59
2017-04-27T00:41:17.013Z,925.6
2017-04-27T00:41:29.736Z,925.58
2017-04-27T00:41:42.932Z,925.58
2017-04-27T00:41:55.624Z,925.58
2017-04-27T00:42:08.828Z,925.59
2017-04-27T00:42:21.482Z,925.6
2017-04-27T00:42:34.594Z,925.64
2017-04-27T00:42:49.085Z,925.61
2017-04-27T00:43:02.220Z,925.64
2017-04-27T00:43:14.903Z,925.56
2017-04-27T00:43:28.082Z,925.58
2017-04-27T00:43:41.249Z,925.6
2017-04-27T00:43:54.418Z,925.58
2017-04-27T00:44:07.634Z,925.59
2017-04-27T00:44:20.860Z,925.61
2017-04-27T00:44:33.941Z,925.58
2017-04-27T00:44:46.550Z,925.57
2017-04-27T00:44:59.724Z,925.55
2017-04-27T00:45:12.902Z,925.57
2017-04-27T00:45:25.579Z,925.57
2017-04-27T00:45:38.786Z,925.56
2017-04-27T00:45:51.901Z,925.6
2017-04-27T00:46:05.013Z,925.55
2017-04-27T00:46:17.664Z,925.54
2017-04-27T00:46:31.028Z,925.56
2017-04-27T00:46:44.223Z,925.56
2017-04-27T00:46:57.355Z,925.57
2017-04-27T00:47:10.451Z,925.58
2017-04-27T00:47:23.148Z,925.61
2017-04-27T00:47:36.299Z,925.63
2017-04-27T00:47:49.436Z,925.58
2017-04-27T00:48:02.555Z,925.6
2017-04-27T00:48:15.244Z,925.59
2017-04-27T00:48:27.897Z,925.58
2017-04-27T00:48:41.048Z,925.62
2017-04-27T00:48:53.676Z,925.59
2017-04-27T00:49:06.877Z,925.58
2017-04-27T00:49:19.487Z,925.62
2017-04-27T00:49:32.148Z,925.61
2017-04-27T00:49:44.756Z,925.58
2017-04-27T00:49:57.964Z,925.56
2017-04-27T00:50:11.131Z,925.55
2017-04-27T00:50:23.842Z,925.54
2017-04-27T00:50:37.037Z,925.57
2017-04-27T00:50:50.220Z,925.52
2017-04-27T00:51:03.436Z,925.49
2017-04-27T00:51:16.551Z,925.49
2017-04-27T00:51:29.245Z,925.51
2017-04-27T00:51:42.442Z,925.5
2017-04-27T00:51:55.645Z,925.52
2017-04-27T00:52:08.779Z,925.48
2017-04-27T00:52:21.399Z,925.53
2017-04-27T00:52:34.595Z,925.51
2017-04-27T00:52:47.757Z,925.47
2017-04-27T00:53:00.914Z,925.5
2017-04-27T00:53:14.066Z,925.54
2017-04-27T00:53:26.760Z,925.46
2017-04-27T00:53:39.937Z,925.49
2017-04-27T00:53:53.084Z,925.49
2017-04-27T00:54:05.729Z,925.47
2017-04-27T00:54:18.878Z,925.49
2017-04-27T00:54:32.047Z,925.39
2017-04-27T00:54:45.225Z,925.46
2017-04-27T00:54:58.427Z,925.48
2017-04-27T00:55:11.588Z,925.52
2017-04-27T00:55:24.719Z,925.5
2017-04-27T00:55:37.369Z,925.49
2017-04-27T00:55:50.055Z,925.5
2017-04-27T00:56:03.166Z,925.49
2017-04-27T00:56:16.349Z,925.5
2017-04-27T00:56:28.994Z,925.49
2017-04-27T00:56:41.607Z,925.5
2017-04-27T00:56:54.794Z,925.48
2017-04-27T00:57:07.951Z,925.52
2017-04-27T00:57:20.611Z,925.51
2017-04-27T00:57:33.783Z,925.54
2017-04-27T00:57:46.918Z,925.56
2017-04-27T00:57:59.642Z,925.55
2017-04-27T00:58:12.262Z,925.59
2017-04-27T00:58:25.381Z,925.55
2017-04-27T00:58:38.593Z,925.55
2017-04-27T00:58:51.735Z,925.58
2017-04-27T00:59:04.976Z,925.59
2017-04-27T00:59:18.115Z,925.61
2017-04-27T00:59:30.749Z,925.59
2017-04-27T00:59:43.896Z,925.6
2017-04-27T00:59:56.053Z,925.61
2017-04-27T01:00:08.657Z,925.66
2017-04-27T01:00:21.771Z,925.72
2017-04-27T01:00:34.902Z,925.72
2017-04-27T01:00:48.049Z,925.71
2017-04-27T01:01:01.180Z,925.72
2017-04-27T01:01:14.293Z,925.72
2017-04-27T01:01:27.677Z,925.72
2017-04-27T01:01:39.762Z,925.72
2017-04-27T01:01:54.921Z,925.75
2017-04-27T01:02:08.016Z,925.73
2017-04-27T01:02:20.697Z,925.75
2017-04-27T01:02:33.456Z,925.78
2017-04-27T01:02:47.932Z,925.77
2017-04-27T01:03:01.112Z,925.76
2017-04-27T01:03:14.232Z,925.7
2017-04-27T01:03:27.751Z,925.73
2017-04-27T01:03:42.648Z,925.71
2017-04-27T01:03:55.807Z,925.76
2017-04-27T01:04:09.730Z,925.73
2017-04-27T01:04:22.980Z,925.73
2017-04-27T01:04:36.152Z,925.71
2017-04-27T01:04:48.772Z,925.73
2017-04-27T01:05:01.947Z,925.69
2017-04-27T01:05:14.657Z,925.69
2017-04-27T01:05:27.389Z,925.7
2017-04-27T01:05:40.557Z,925.71
2017-04-27T01:05:53.746Z,925.72
2017-04-27T01:06:06.411Z,925.72
2017-04-27T01:06:19.563Z,925.72
2017-04-27T01:06:32.724Z,925.76
2017-04-27T01:06:45.856Z,925.74
2017-04-27T01:06:59.021Z,925.7
2017-04-27T01:07:11.645Z,925.73
2017-04-27T01:07:24.767Z,925.74
2017-04-27T01:07:37.414Z,925.72
2017-04-27T01:07:50.061Z,925.72
2017-04-27T01:08:03.237Z,925.74
2017-04-27T01:08:16.378Z,925.73
2017-04-27T01:08:29.511Z,925.77
2017-04-27T01:08:42.201Z,925.73
2017-04-27T01:08:55.349Z,925.76
2017-04-27T01:09:08.513Z,925.77
2017-04-27T01:09:20.615Z,925.79
2017-04-27T01:09:35.120Z,925.73
2017-04-27T01:09:48.325Z,925.77
2017-04-27T01:10:01.494Z,925.77
2017-04-27T01:10:14.159Z,925.84
2017-04-27T01:10:26.811Z,925.81
2017-04-27T01:10:40.001Z,925.81
2017-04-27T01:10:53.184Z,925.8
2017-04-27T01:11:06.329Z,925.79
2017-04-27T01:11:19.448Z,925.82
2017-04-27T01:11:32.660Z,925.83
2017-04-27T01:11:45.825Z,925.85
2017-04-27T01:11:59.003Z,925.85
2017-04-27T01:12:11.701Z,925.84
2017-04-27T01:12:24.819Z,925.88
2017-04-27T01:12:37.971Z,925.85
2017-04-27T01:12:50.673Z,925.88
2017-04-27T01:13:03.882Z,925.87
2017-04-27T01:13:17.039Z,925.89
2017-04-27T01:13:30.185Z,925.87
2017-04-27T01:13:42.886Z,925.91
2017-04-27T01:13:56.005Z,925.91
2017-04-27T01:14:09.150Z,925.87
2017-04-27T01:14:22.315Z,925.93
2017-04-27T01:14:35.455Z,925.92
2017-04-27T01:14:48.612Z,925.92
2017-04-27T01:15:01.747Z,925.92
2017-04-27T01:15:14.441Z,925.92
2017-04-27T01:15:27.626Z,925.92
2017-04-27T01:15:40.761Z,925.94
2017-04-27T01:15:53.960Z,925.94
2017-04-27T01:16:07.129Z,925.92
2017-04-27T01:16:19.324Z,925.94
2017-04-27T01:16:32.787Z,925.95
2017-04-27T01:16:45.972Z,925.93
2017-04-27T01:16:59.108Z,925.94
2017-04-27T01:17:12.268Z,925.95
2017-04-27T01:17:24.905Z,925.94
2017-04-27T01:17:38.092Z,925.94
2017-04-27T01:17:51.270Z,925.95
2017-04-27T01:18:03.943Z,925.94
2017-04-27T01:18:16.660Z,925.94
2017-04-27T01:18:29.797Z,925.93
2017-04-27T01:18:42.960Z,925.97
2017-04-27T01:18:56.166Z,926.01
2017-04-27T01:19:09.346Z,926.03
2017-04-27T01:19:22.547Z,926
2017-04-27T01:19:35.724Z,926.04
2017-04-27T01:19:48.916Z,926.03
2017-04-27T01:20:02.212Z,926.04
2017-04-27T01:20:15.369Z,926.07
2017-04-27T01:20:28.573Z,926.09
2017-04-27T01:20:41.729Z,926.07
2017-04-27T01:20:54.907Z,926.04
2017-04-27T01:21:08.103Z,926.03
2017-04-27T01:21:20.290Z,926.07
2017-04-27T01:21:33.465Z,926.1
2017-04-27T01:21:46.562Z,926.09
2017-04-27T01:21:59.714Z,926.08
2017-04-27T01:22:12.358Z,926.1
2017-04-27T01:22:25.015Z,926.1
2017-04-27T01:22:38.138Z,926.09
2017-04-27T01:22:51.280Z,926.09
2017-04-27T01:23:04.481Z,926.11
2017-04-27T01:23:17.643Z,926.12
2017-04-27T01:23:30.831Z,926.1
2017-04-27T01:23:43.921Z,926.08
2017-04-27T01:23:57.076Z,926.09
2017-04-27T01:24:10.205Z,926.09
2017-04-27T01:24:23.415Z,926.09
2017-04-27T01:24:36.569Z,926.12
2017-04-27T01:24:49.748Z,926.13
2017-04-27T01:25:02.896Z,926.11
2017-04-27T01:25:14.987Z,926.13
2017-04-27T01:25:28.165Z,926.13
2017-04-27T01:25:41.339Z,926.08
2017-04-27T01:25:54.002Z,926.1
2017-04-27T01:26:06.111Z,926.11
2017-04-27T01:26:19.228Z,926.1
2017-04-27T01:26:32.370Z,926.1
2017-04-27T01:26:45.570Z,926.09
2017-04-27T01:26:58.685Z,926.1
2017-04-27T01:27:11.937Z,926.09
2017-04-27T01:27:24.623Z,926.1
2017-04-27T01:27:37.748Z,926.14
2017-04-27T01:27:50.888Z,926.08
2017-04-27T01:28:04.055Z,926.05
2017-04-27T01:28:16.743Z,926.09
2017-04-27T01:28:29.917Z,926.07
2017-04-27T01:28:42.601Z,926.07
2017-04-27T01:28:55.774Z,926.09
2017-04-27T01:29:08.436Z,926.08
2017-04-27T01:29:21.601Z,926.09
2017-04-27T01:29:34.779Z,926.1
2017-04-27T01:29:47.925Z,926.09
2017-04-27T01:30:00.597Z,926.07
2017-04-27T01:30:13.753Z,926.09
2017-04-27T01:30:26.890Z,926.11
2017-04-27T01:30:40.038Z,926.09
2017-04-27T01:30:53.241Z,926.1
2017-04-27T01:31:06.417Z,926.04
2017-04-27T01:31:19.079Z,926.06
2017-04-27T01:31:32.210Z,926.07
2017-04-27T01:31:45.599Z,926.08
2017-04-27T01:31:58.756Z,926.07
2017-04-27T01:32:11.453Z,926.08
2017-04-27T01:32:24.634Z,926.09
2017-04-27T01:32:37.824Z,926.11
2017-04-27T01:32:50.973Z,926.12
2017-04-27T01:33:03.633Z,926.1
2017-04-27T01:33:16.741Z,926.09
2017-04-27T01:33:29.842Z,926.1
2017-04-27T01:33:43.029Z,926.11
2017-04-27T01:33:56.213Z,926.15
2017-04-27T01:34:09.472Z,926.12
2017-04-27T01:34:22.529Z,926.11
2017-04-27T01:34:35.641Z,926.16
2017-04-27T01:34:48.808Z,926.15
2017-04-27T01:35:01.969Z,926.13
2017-04-27T01:35:15.132Z,926.12
2017-04-27T01:35:27.776Z,926.12
2017-04-27T01:35:40.983Z,926.14
2017-04-27T01:35:54.235Z,926.11
2017-04-27T01:36:06.993Z,926.12
2017-04-27T01:36:20.200Z,926.12
2017-04-27T01:36:33.361Z,926.1
2017-04-27T01:36:46.478Z,926.1
2017-04-27T01:36:59.626Z,926.08
2017-04-27T01:37:12.342Z,926.11
2017-04-27T01:37:25.535Z,926.07
2017-04-27T01:37:38.678Z,926.1
2017-04-27T01:37:51.805Z,926.1
2017-04-27T01:38:04.961Z,926.11
2017-04-27T01:38:18.161Z,926.1
2017-04-27T01:38:30.819Z,926.13
2017-04-27T01:38:43.974Z,926.11
2017-04-27T01:38:57.129Z,926.11
2017-04-27T01:39:09.738Z,926.14
2017-04-27T01:39:22.344Z,926.14
2017-04-27T01:39:35.487Z,926.15
2017-04-27T01:39:48.589Z,926.14
2017-04-27T01:40:01.769Z,926.14
2017-04-27T01:40:13.936Z,926.17
2017-04-27T01:40:27.078Z,926.2
2017-04-27T01:40:39.265Z,926.19
2017-04-27T01:40:51.930Z,926.19
2017-04-27T01:41:05.153Z,926.19
2017-04-27T01:41:18.330Z,926.17
2017-04-27T01:41:31.520Z,926.17
2017-04-27T01:41:44.765Z,926.17
2017-04-27T01:41:57.861Z,926.18
2017-04-27T01:42:10.483Z,926.18
2017-04-27T01:42:23.681Z,926.17
2017-04-27T01:42:36.767Z,926.2
2017-04-27T01:42:49.884Z,926.17
2017-04-27T01:43:03.006Z,926.21
2017-04-27T01:43:15.706Z,926.22
2017-04-27T01:43:28.926Z,926.2
2017-04-27T01:43:41.575Z,926.21
2017-04-27T01:43:54.205Z,926.17
2017-04-27T01:44:07.362Z,926.19
2017-04-27T01:44:20.043Z,926.2
2017-04-27T01:44:33.186Z,926.2
2017-04-27T01:44:45.808Z,926.2
2017-04-27T01:44:58.929Z,926.2
2017-04-27T01:45:11.525Z,926.2
2017-04-27T01:45:24.644Z,926.19
2017-04-27T01:45:37.758Z,926.18
2017-04-27T01:45:50.929Z,926.22
2017-04-27T01:46:04.123Z,926.19
2017-04-27T01:46:16.796Z,926.26
2017-04-27T01:46:29.487Z,926.25
2017-04-27T01:46:42.836Z,926.21
2017-04-27T01:46:55.980Z,926.23
2017-04-27T01:47:08.687Z,926.25
2017-04-27T01:47:21.861Z,926.22
2017-04-27T01:47:35.077Z,926.26
2017-04-27T01:47:48.230Z,926.23
2017-04-27T01:48:01.380Z,926.23
2017-04-27T01:48:14.028Z,926.25
2017-04-27T01:48:27.207Z,926.24
2017-04-27T01:48:39.879Z,926.25
2017-04-27T01:48:52.026Z,926.25
2017-04-27T01:49:05.145Z,926.25
2017-04-27T01:49:17.771Z,926.24
2017-04-27T01:49:31.023Z,926.28
2017-04-27T01:49:44.200Z,926.23
2017-04-27T01:49:57.320Z,926.28
2017-04-27T01:50:10.508Z,926.28
2017-04-27T01:50:23.664Z,926.27
2017-04-27T01:50:36.798Z,926.31
2017-04-27T01:50:49.486Z,926.33
2017-04-27T01:51:02.662Z,926.31
2017-04-27T01:51:15.828Z,926.3
2017-04-27T01:51:29.046Z,926.33
2017-04-27T01:51:41.706Z,926.35
2017-04-27T01:51:54.921Z,926.33
2017-04-27T01:52:07.563Z,926.32
2017-04-27T01:52:20.690Z,926.36
2017-04-27T01:52:33.869Z,926.37
2017-04-27T01:52:47.048Z,926.4
2017-04-27T01:53:00.227Z,926.36
2017-04-27T01:53:13.390Z,926.41
2017-04-27T01:53:26.587Z,926.35
2017-04-27T01:53:39.210Z,926.38
2017-04-27T01:53:52.450Z,926.39
2017-04-27T01:54:05.608Z,926.38
2017-04-27T01:54:18.755Z,926.42
2017-04-27T01:54:31.940Z,926.42
2017-04-27T01:54:44.585Z,926.39
2017-04-27T01:54:57.710Z,926.38
2017-04-27T01:55:10.942Z,926.38
2017-04-27T01:55:23.592Z,926.39
2017-04-27T01:55:36.265Z,926.4
2017-04-27T01:55:49.437Z,926.38
2017-04-27T01:56:02.585Z,926.39
2017-04-27T01:56:15.246Z,926.41
2017-04-27T01:56:28.457Z,926.4
2017-04-27T01:56:41.556Z,926.4
2017-04-27T01:56:54.726Z,926.39
2017-04-27T01:57:07.889Z,926.38
2017-04-27T01:57:21.054Z,926.39
2017-04-27T01:57:34.183Z,926.38
2017-04-27T01:57:47.352Z,926.4
2017-04-27T01:58:00.028Z,926.39
2017-04-27T01:58:12.742Z,926.42
2017-04-27T01:58:25.924Z,926.42
2017-04-27T01:58:39.749Z,926.4
2017-04-27T01:58:52.980Z,926.44
2017-04-27T01:59:06.131Z,926.41
2017-04-27T01:59:19.313Z,926.44
2017-04-27T01:59:32.535Z,926.47
2017-04-27T01:59:45.688Z,926.47
2017-04-27T01:59:58.898Z,926.49
2017-04-27T02:00:11.534Z,926.5
2017-04-27T02:00:24.143Z,926.51
2017-04-27T02:00:37.313Z,926.53
2017-04-27T02:00:50.488Z,926.54
2017-04-27T02:01:03.677Z,926.53
2017-04-27T02:01:16.824Z,926.54
2017-04-27T02:01:29.966Z,926.58
2017-04-27T02:01:43.173Z,926.56
2017-04-27T02:01:56.548Z,926.55
2017-04-27T02:02:09.713Z,926.51
2017-04-27T02:02:22.853Z,926.53
2017-04-27T02:02:35.993Z,926.53
2017-04-27T02:02:49.112Z,926.54
2017-04-27T02:03:02.290Z,926.56
2017-04-27T02:03:14.426Z,926.55
2017-04-27T02:03:27.580Z,926.52
2017-04-27T02:03:40.751Z,926.51
2017-04-27T02:03:53.979Z,926.52
2017-04-27T02:04:07.125Z,926.52
2017-04-27T02:04:20.285Z,926.5
2017-04-27T02:04:33.458Z,926.52
2017-04-27T02:04:46.529Z,926.51
2017-04-27T02:04:59.622Z,926.52
2017-04-27T02:05:11.787Z,926.49
2017-04-27T02:05:24.966Z,926.51
2017-04-27T02:05:38.124Z,926.58
2017-04-27T02:05:51.289Z,926.58
2017-04-27T02:06:04.444Z,926.52
2017-04-27T02:06:17.568Z,926.59
2017-04-27T02:06:30.705Z,926.61
2017-04-27T02:06:43.858Z,926.58
2017-04-27T02:06:56.005Z,926.62
2017-04-27T02:07:08.853Z,926.61
2017-04-27T02:07:22.026Z,926.61
2017-04-27T02:07:35.176Z,926.64
2017-04-27T02:07:47.824Z,926.68
2017-04-27T02:08:00.969Z,926.67
2017-04-27T02:08:14.162Z,926.68
2017-04-27T02:08:27.381Z,926.67
2017-04-27T02:08:40.617Z,926.64
2017-04-27T02:08:53.756Z,926.71
2017-04-27T02:09:06.959Z,926.67
2017-04-27T02:09:20.194Z,926.64
2017-04-27T02:09:33.321Z,926.68
2017-04-27T02:09:46.458Z,926.69
2017-04-27T02:09:59.611Z,926.68
2017-04-27T02:10:12.732Z,926.68
2017-04-27T02:10:25.385Z,926.7
2017-04-27T02:10:38.065Z,926.69
2017-04-27T02:10:51.272Z,926.7
2017-04-27T02:11:04.386Z,926.69
2017-04-27T02:11:17.513Z,926.69
2017-04-27T02:11:30.714Z,926.7
2017-04-27T02:11:43.861Z,926.67
2017-04-27T02:11:57.095Z,926.68
2017-04-27T02:12:10.299Z,926.7
2017-04-27T02:12:23.379Z,926.68
2017-04-27T02:12:36.460Z,926.66
2017-04-27T02:12:49.614Z,926.61
2017-04-27T02:13:02.835Z,926.66
2017-04-27T02:13:15.471Z,926.62
2017-04-27T02:13:28.635Z,926.62
2017-04-27T02:13:41.784Z,926.63
2017-04-27T02:13:54.930Z,926.63
2017-04-27T02:14:08.064Z,926.62
2017-04-27T02:14:20.695Z,926.61
2017-04-27T02:14:33.846Z,926.65
2017-04-27T02:14:46.994Z,926.64
2017-04-27T02:15:00.205Z,926.62
2017-04-27T02:15:12.898Z,926.63
2017-04-27T02:15:25.113Z,926.65
2017-04-27T02:15:38.274Z,926.64
2017-04-27T02:15:51.422Z,926.65
2017-04-27T02:16:04.087Z,926.63
2017-04-27T02:16:16.802Z,926.61
2017-04-27T02:16:29.950Z,926.63
2017-04-27T02:16:42.563Z,926.63
2017-04-27T02:16:55.258Z,926.58
2017-04-27T02:17:08.207Z,926.61
2017-04-27T02:17:21.325Z,926.61
2017-04-27T02:17:34.486Z,926.58
2017-04-27T02:17:47.658Z,926.61
2017-04-27T02:18:00.765Z,926.6
2017-04-27T02:18:13.945Z,926.62
2017-04-27T02:18:27.064Z,926.58
2017-04-27T02:18:40.221Z,926.59
2017-04-27T02:18:52.877Z,926.57
2017-04-27T02:19:06.047Z,926.56
2017-04-27T02:19:19.195Z,926.56
2017-04-27T02:19:32.385Z,926.56
2017-04-27T02:19:45.558Z,926.58
2017-04-27T02:19:58.714Z,926.52
2017-04-27T02:20:11.409Z,926.56
2017-04-27T02:20:24.607Z,926.55
2017-04-27T02:20:37.728Z,926.55
2017-04-27T02:20:50.379Z,926.55
2017-04-27T02:21:03.558Z,926.52
2017-04-27T02:21:16.716Z,926.52
2017-04-27T02:21:29.849Z,926.51
2017-04-27T02:21:42.569Z,926.46
2017-04-27T02:21:55.699Z,926.49
2017-04-27T02:22:08.847Z,926.48
2017-04-27T02:22:21.980Z,926.47
2017-04-27T02:22:35.125Z,926.48
2017-04-27T02:22:47.828Z,926.43
2017-04-27T02:23:00.962Z,926.45
2017-04-27T02:23:14.153Z,926.45
2017-04-27T02:23:27.315Z,926.45
2017-04-27T02:23:40.484Z,926.43
2017-04-27T02:23:53.591Z,926.39
2017-04-27T02:24:06.752Z,926.43
2017-04-27T02:24:19.924Z,926.42
2017-04-27T02:24:33.136Z,926.39
2017-04-27T02:24:46.367Z,926.36
2017-04-27T02:24:59.503Z,926.36
2017-04-27T02:25:12.688Z,926.34
2017-04-27T02:25:24.838Z,926.33
2017-04-27T02:25:37.961Z,926.34
2017-04-27T02:25:51.126Z,926.34
2017-04-27T02:26:04.500Z,926.34
2017-04-27T02:26:17.158Z,926.33
2017-04-27T02:26:29.834Z,926.32
2017-04-27T02:26:43.011Z,926.33
2017-04-27T02:26:55.666Z,926.29
2017-04-27T02:27:08.326Z,926.3
2017-04-27T02:27:21.519Z,926.34
2017-04-27T02:27:34.732Z,926.3
2017-04-27T02:27:47.906Z,926.31
2017-04-27T02:28:01.026Z,926.3
2017-04-27T02:28:13.177Z,926.3
2017-04-27T02:28:25.843Z,926.31
2017-04-27T02:28:39.009Z,926.28
2017-04-27T02:28:52.193Z,926.31
2017-04-27T02:29:05.308Z,926.28
2017-04-27T02:29:18.473Z,926.28
2017-04-27T02:29:31.614Z,926.29
2017-04-27T02:29:44.729Z,926.3
2017-04-27T02:29:57.878Z,926.27
2017-04-27T02:30:10.510Z,926.29
2017-04-27T02:30:23.653Z,926.27
2017-04-27T02:30:36.806Z,926.26
2017-04-27T02:30:49.953Z,926.25
2017-04-27T02:31:02.131Z,926.26
2017-04-27T02:31:15.280Z,926.29
2017-04-27T02:31:28.463Z,926.3
2017-04-27T02:31:41.602Z,926.28
2017-04-27T02:31:54.794Z,926.28
2017-04-27T02:32:08.112Z,926.27
2017-04-27T02:32:20.809Z,926.27
2017-04-27T02:32:33.975Z,926.25
2017-04-27T02:32:47.119Z,926.28
2017-04-27T02:33:00.264Z,926.26
2017-04-27T02:33:13.413Z,926.23
2017-04-27T02:33:26.596Z,926.26
2017-04-27T02:33:39.771Z,926.25
2017-04-27T02:33:52.977Z,926.25
2017-04-27T02:34:06.087Z,926.25
2017-04-27T02:34:19.305Z,926.24
2017-04-27T02:34:32.473Z,926.21
2017-04-27T02:34:45.603Z,926.24
2017-04-27T02:34:58.707Z,926.21
2017-04-27T02:35:11.901Z,926.23
2017-04-27T02:35:25.098Z,926.21
2017-04-27T02:35:38.255Z,926.22
2017-04-27T02:35:51.412Z,926.2
2017-04-27T02:36:04.630Z,926.24
2017-04-27T02:36:17.795Z,926.22
2017-04-27T02:36:30.989Z,926.2
2017-04-27T02:36:43.627Z,926.17
2017-04-27T02:36:56.783Z,926.22
2017-04-27T02:37:09.926Z,926.22
2017-04-27T02:37:23.115Z,926.2
2017-04-27T02:37:36.238Z,926.19
2017-04-27T02:37:49.453Z,926.24
2017-04-27T02:38:02.114Z,926.2
2017-04-27T02:38:15.303Z,926.2
2017-04-27T02:38:28.457Z,926.18
2017-04-27T02:38:41.091Z,926.2
2017-04-27T02:38:54.222Z,926.22
2017-04-27T02:39:07.443Z,926.15
2017-04-27T02:39:20.117Z,926.16
2017-04-27T02:39:33.364Z,926.13
2017-04-27T02:39:46.544Z,926.12
2017-04-27T02:39:59.706Z,926.13
2017-04-27T02:40:12.909Z,926.11
2017-04-27T02:40:26.089Z,926.09
2017-04-27T02:40:38.750Z,926.07
2017-04-27T02:40:51.907Z,926.07
2017-04-27T02:41:04.559Z,926.04
2017-04-27T02:41:17.203Z,926.02
2017-04-27T02:41:30.377Z,926.01
2017-04-27T02:41:43.615Z,925.95
2017-04-27T02:41:56.793Z,925.97
2017-04-27T02:42:10.076Z,925.96
2017-04-27T02:42:23.261Z,925.93
2017-04-27T02:42:36.403Z,925.96
2017-04-27T02:42:49.597Z,925.96
2017-04-27T02:43:02.731Z,925.86
2017-04-27T02:43:15.888Z,925.89